sensor_id;sensor_type;location;lat;lon;timestamp;temperature;humidity
1948;DHT22;974;52.400;9.818;2024-03-22T00:00:41;9.30;99.90
1948;DHT22;974;52.400;9.818;2024-03-22T00:03:06;9.20;99.90
1948;DHT22;974;52.400;9.818;2024-03-22T00:05:32;9.30;99.90
1948;DHT22;974;52.400;9.818;2024-03-22T00:07:57;9.40;99.90
1948;DHT22;974;52.400;9.818;2024-03-22T00:10:23;9.40;99.90
1948;DHT22;974;52.400;9.818;2024-03-22T00:12:51;9.30;99.90
1948;DHT22;974;52.400;9.818;2024-03-22T00:15:17;9.30;99.90
1948;DHT22;974;52.400;9.818;2024-03-22T00:17:44;9.30;99.90
1948;DHT22;974;52.400;9.818;2024-03-22T00:20:10;9.30;99.90
1948;DHT22;974;52.400;9.818;2024-03-22T00:22:35;9.40;99.90
1948;DHT22;974;52.400;9.818;2024-03-22T00:25:01;9.30;99.90
1948;DHT22;974;52.400;9.818;2024-03-22T00:27:26;9.40;99.90
1948;DHT22;974;52.400;9.818;2024-03-22T00:29:52;9.40;99.90
1948;DHT22;974;52.400;9.818;2024-03-22T00:32:17;9.50;99.90
1948;DHT22;974;52.400;9.818;2024-03-22T00:34:43;9.50;99.90
1948;DHT22;974;52.400;9.818;2024-03-22T00:37:09;9.50;99.90
1948;DHT22;974;52.400;9.818;2024-03-22T00:39:34;9.40;99.90
1948;DHT22;974;52.400;9.818;2024-03-22T00:42:01;9.40;99.90
1948;DHT22;974;52.400;9.818;2024-03-22T00:44:26;9.40;99.90
1948;DHT22;974;52.400;9.818;2024-03-22T00:46:52;9.50;99.90
1948;DHT22;974;52.400;9.818;2024-03-22T00:49:17;9.40;99.90
1948;DHT22;974;52.400;9.818;2024-03-22T00:51:42;9.50;99.90
1948;DHT22;974;52.400;9.818;2024-03-22T00:54:12;9.50;99.90
1948;DHT22;974;52.400;9.818;2024-03-22T00:56:38;9.60;99.90
1948;DHT22;974;52.400;9.818;2024-03-22T00:59:03;9.50;99.90
1948;DHT22;974;52.400;9.818;2024-03-22T01:01:29;9.50;99.90
1948;DHT22;974;52.400;9.818;2024-03-22T01:03:54;9.40;99.90
1948;DHT22;974;52.400;9.818;2024-03-22T01:06:20;9.50;99.90
1948;DHT22;974;52.400;9.818;2024-03-22T01:08:50;9.40;99.90
1948;DHT22;974;52.400;9.818;2024-03-22T01:11:17;9.50;99.90
1948;DHT22;974;52.400;9.818;2024-03-22T01:13:42;9.50;99.90
1948;DHT22;974;52.400;9.818;2024-03-22T01:16:08;9.50;99.90
1948;DHT22;974;52.400;9.818;2024-03-22T01:18:35;9.40;99.90
1948;DHT22;974;52.400;9.818;2024-03-22T01:21:01;9.50;99.90
1948;DHT22;974;52.400;9.818;2024-03-22T01:23:27;9.60;99.90
1948;DHT22;974;52.400;9.818;2024-03-22T01:25:52;9.50;99.90
1948;DHT22;974;52.400;9.818;2024-03-22T01:28:18;9.60;99.90
1948;DHT22;974;52.400;9.818;2024-03-22T01:30:43;9.60;99.90
1948;DHT22;974;52.400;9.818;2024-03-22T01:33:09;9.70;99.90
1948;DHT22;974;52.400;9.818;2024-03-22T01:35:34;9.70;99.90
1948;DHT22;974;52.400;9.818;2024-03-22T01:38:00;9.70;99.90
1948;DHT22;974;52.400;9.818;2024-03-22T01:40:25;9.70;99.90
1948;DHT22;974;52.400;9.818;2024-03-22T01:42:57;9.80;99.90
1948;DHT22;974;52.400;9.818;2024-03-22T01:45:25;9.70;99.90
1948;DHT22;974;52.400;9.818;2024-03-22T01:47:51;9.80;99.90
1948;DHT22;974;52.400;9.818;2024-03-22T01:50:20;9.80;99.90
1948;DHT22;974;52.400;9.818;2024-03-22T01:52:56;9.80;99.90
1948;DHT22;974;52.400;9.818;2024-03-22T01:55:21;9.80;99.90
1948;DHT22;974;52.400;9.818;2024-03-22T01:57:48;9.80;99.90
1948;DHT22;974;52.400;9.818;2024-03-22T02:00:15;9.80;99.90
1948;DHT22;974;52.400;9.818;2024-03-22T02:02:40;9.80;99.90
1948;DHT22;974;52.400;9.818;2024-03-22T02:05:15;9.90;99.90
1948;DHT22;974;52.400;9.818;2024-03-22T02:07:44;9.90;99.90
1948;DHT22;974;52.400;9.818;2024-03-22T02:10:10;9.90;99.90
1948;DHT22;974;52.400;9.818;2024-03-22T02:12:37;9.90;99.90
1948;DHT22;974;52.400;9.818;2024-03-22T02:15:03;9.90;99.90
1948;DHT22;974;52.400;9.818;2024-03-22T02:17:29;9.80;99.90
1948;DHT22;974;52.400;9.818;2024-03-22T02:19:54;9.80;99.90
1948;DHT22;974;52.400;9.818;2024-03-22T02:22:20;9.80;99.90
1948;DHT22;974;52.400;9.818;2024-03-22T02:24:45;9.90;99.90
1948;DHT22;974;52.400;9.818;2024-03-22T02:27:11;9.80;99.90
1948;DHT22;974;52.400;9.818;2024-03-22T02:29:36;9.90;99.90
1948;DHT22;974;52.400;9.818;2024-03-22T02:32:02;9.80;99.90
1948;DHT22;974;52.400;9.818;2024-03-22T02:34:28;9.90;99.90
1948;DHT22;974;52.400;9.818;2024-03-22T02:36:54;9.80;99.90
1948;DHT22;974;52.400;9.818;2024-03-22T02:39:19;9.80;99.90
1948;DHT22;974;52.400;9.818;2024-03-22T02:41:45;9.80;99.90
1948;DHT22;974;52.400;9.818;2024-03-22T02:44:10;9.80;99.90
1948;DHT22;974;52.400;9.818;2024-03-22T02:46:36;9.80;99.90
1948;DHT22;974;52.400;9.818;2024-03-22T02:49:04;9.80;99.90
1948;DHT22;974;52.400;9.818;2024-03-22T02:51:29;9.90;99.90
1948;DHT22;974;52.400;9.818;2024-03-22T02:53:55;9.70;99.90
1948;DHT22;974;52.400;9.818;2024-03-22T02:56:20;9.80;99.90
1948;DHT22;974;52.400;9.818;2024-03-22T02:58:46;9.80;99.90
1948;DHT22;974;52.400;9.818;2024-03-22T03:01:11;9.80;99.90
1948;DHT22;974;52.400;9.818;2024-03-22T03:03:37;9.80;99.90
1948;DHT22;974;52.400;9.818;2024-03-22T03:06:02;9.80;99.90
1948;DHT22;974;52.400;9.818;2024-03-22T03:08:28;9.80;99.90
1948;DHT22;974;52.400;9.818;2024-03-22T03:10:53;9.80;99.90
1948;DHT22;974;52.400;9.818;2024-03-22T03:13:19;9.80;99.90
1948;DHT22;974;52.400;9.818;2024-03-22T03:15:44;9.80;99.90
1948;DHT22;974;52.400;9.818;2024-03-22T03:18:10;9.80;99.90
1948;DHT22;974;52.400;9.818;2024-03-22T03:20:35;9.90;99.90
1948;DHT22;974;52.400;9.818;2024-03-22T03:23:01;9.80;99.90
1948;DHT22;974;52.400;9.818;2024-03-22T03:25:27;9.80;99.90
1948;DHT22;974;52.400;9.818;2024-03-22T03:27:52;9.80;99.90
1948;DHT22;974;52.400;9.818;2024-03-22T03:30:18;9.80;99.90
1948;DHT22;974;52.400;9.818;2024-03-22T03:32:43;9.70;99.90
1948;DHT22;974;52.400;9.818;2024-03-22T03:35:09;9.80;99.90
1948;DHT22;974;52.400;9.818;2024-03-22T03:37:34;9.80;99.90
1948;DHT22;974;52.400;9.818;2024-03-22T03:40:00;9.90;99.90
1948;DHT22;974;52.400;9.818;2024-03-22T03:42:25;9.80;99.90
1948;DHT22;974;52.400;9.818;2024-03-22T03:44:51;9.80;99.90
1948;DHT22;974;52.400;9.818;2024-03-22T03:47:16;9.80;99.90
1948;DHT22;974;52.400;9.818;2024-03-22T03:49:42;9.80;99.90
1948;DHT22;974;52.400;9.818;2024-03-22T03:52:07;9.90;99.90
1948;DHT22;974;52.400;9.818;2024-03-22T03:54:33;9.80;99.90
1948;DHT22;974;52.400;9.818;2024-03-22T03:56:58;9.90;99.90
1948;DHT22;974;52.400;9.818;2024-03-22T03:59:24;9.80;99.90
1948;DHT22;974;52.400;9.818;2024-03-22T04:01:49;9.90;99.90
1948;DHT22;974;52.400;9.818;2024-03-22T04:04:15;9.80;99.90
1948;DHT22;974;52.400;9.818;2024-03-22T04:06:40;9.80;99.90
1948;DHT22;974;52.400;9.818;2024-03-22T04:09:06;9.90;99.90
1948;DHT22;974;52.400;9.818;2024-03-22T04:11:31;9.90;99.90
1948;DHT22;974;52.400;9.818;2024-03-22T04:13:57;9.80;99.90
1948;DHT22;974;52.400;9.818;2024-03-22T04:16:22;9.90;99.90
1948;DHT22;974;52.400;9.818;2024-03-22T04:18:48;9.90;99.90
1948;DHT22;974;52.400;9.818;2024-03-22T04:21:13;9.80;99.90
1948;DHT22;974;52.400;9.818;2024-03-22T04:23:39;9.90;99.90
1948;DHT22;974;52.400;9.818;2024-03-22T04:26:04;9.90;99.90
1948;DHT22;974;52.400;9.818;2024-03-22T04:28:30;9.90;99.90
1948;DHT22;974;52.400;9.818;2024-03-22T04:31:03;9.90;99.90
1948;DHT22;974;52.400;9.818;2024-03-22T04:33:29;9.90;99.90
1948;DHT22;974;52.400;9.818;2024-03-22T04:35:56;9.90;99.90
1948;DHT22;974;52.400;9.818;2024-03-22T04:38:22;9.90;99.90
1948;DHT22;974;52.400;9.818;2024-03-22T04:40:48;10.00;99.90
1948;DHT22;974;52.400;9.818;2024-03-22T04:43:14;9.90;99.90
1948;DHT22;974;52.400;9.818;2024-03-22T04:45:45;9.90;99.90
1948;DHT22;974;52.400;9.818;2024-03-22T04:48:13;9.90;99.90
1948;DHT22;974;52.400;9.818;2024-03-22T04:50:39;9.90;99.90
1948;DHT22;974;52.400;9.818;2024-03-22T04:53:04;9.90;99.90
1948;DHT22;974;52.400;9.818;2024-03-22T04:55:31;10.00;99.90
1948;DHT22;974;52.400;9.818;2024-03-22T04:57:56;9.90;99.90
1948;DHT22;974;52.400;9.818;2024-03-22T05:00:22;9.90;99.90
1948;DHT22;974;52.400;9.818;2024-03-22T05:02:47;9.90;99.90
1948;DHT22;974;52.400;9.818;2024-03-22T05:05:13;9.90;99.90
1948;DHT22;974;52.400;9.818;2024-03-22T05:07:38;9.90;99.90
1948;DHT22;974;52.400;9.818;2024-03-22T05:10:04;9.90;99.90
1948;DHT22;974;52.400;9.818;2024-03-22T05:12:30;9.90;99.90
1948;DHT22;974;52.400;9.818;2024-03-22T05:14:56;9.90;99.90
1948;DHT22;974;52.400;9.818;2024-03-22T05:17:21;9.80;99.90
1948;DHT22;974;52.400;9.818;2024-03-22T05:19:47;9.90;99.90
1948;DHT22;974;52.400;9.818;2024-03-22T05:22:13;9.80;99.90
1948;DHT22;974;52.400;9.818;2024-03-22T05:24:38;9.90;99.90
1948;DHT22;974;52.400;9.818;2024-03-22T05:27:04;9.90;99.90
1948;DHT22;974;52.400;9.818;2024-03-22T05:29:30;9.90;99.90
1948;DHT22;974;52.400;9.818;2024-03-22T05:31:55;9.90;99.90
1948;DHT22;974;52.400;9.818;2024-03-22T05:34:21;10.00;99.90
1948;DHT22;974;52.400;9.818;2024-03-22T05:36:46;10.00;99.90
1948;DHT22;974;52.400;9.818;2024-03-22T05:39:11;10.00;99.90
1948;DHT22;974;52.400;9.818;2024-03-22T05:41:49;10.00;99.90
1948;DHT22;974;52.400;9.818;2024-03-22T05:44:15;10.00;99.90
1948;DHT22;974;52.400;9.818;2024-03-22T05:46:40;10.00;99.90
1948;DHT22;974;52.400;9.818;2024-03-22T05:49:06;10.10;99.90
1948;DHT22;974;52.400;9.818;2024-03-22T05:51:31;10.10;99.90
1948;DHT22;974;52.400;9.818;2024-03-22T05:53:57;10.10;99.90
1948;DHT22;974;52.400;9.818;2024-03-22T05:56:22;10.10;99.90
1948;DHT22;974;52.400;9.818;2024-03-22T05:58:48;10.10;99.90
1948;DHT22;974;52.400;9.818;2024-03-22T06:01:13;10.20;99.90
1948;DHT22;974;52.400;9.818;2024-03-22T06:03:39;10.20;99.90
1948;DHT22;974;52.400;9.818;2024-03-22T06:06:05;10.20;99.90
1948;DHT22;974;52.400;9.818;2024-03-22T06:08:30;10.30;99.90
1948;DHT22;974;52.400;9.818;2024-03-22T06:11:00;10.30;99.90
1948;DHT22;974;52.400;9.818;2024-03-22T06:13:26;10.30;99.90
1948;DHT22;974;52.400;9.818;2024-03-22T06:15:51;10.20;99.90
1948;DHT22;974;52.400;9.818;2024-03-22T06:18:17;10.30;99.90
1948;DHT22;974;52.400;9.818;2024-03-22T06:20:49;10.30;99.90
1948;DHT22;974;52.400;9.818;2024-03-22T06:23:14;10.30;99.90
1948;DHT22;974;52.400;9.818;2024-03-22T06:25:40;10.50;99.90
1948;DHT22;974;52.400;9.818;2024-03-22T06:28:05;10.40;99.90
1948;DHT22;974;52.400;9.818;2024-03-22T06:30:31;10.40;99.90
1948;DHT22;974;52.400;9.818;2024-03-22T06:32:56;10.40;99.90
1948;DHT22;974;52.400;9.818;2024-03-22T06:35:22;10.50;99.90
1948;DHT22;974;52.400;9.818;2024-03-22T06:37:47;10.50;99.90
1948;DHT22;974;52.400;9.818;2024-03-22T06:40:19;10.50;99.90
1948;DHT22;974;52.400;9.818;2024-03-22T06:42:46;10.50;99.90
1948;DHT22;974;52.400;9.818;2024-03-22T06:45:11;10.60;99.90
1948;DHT22;974;52.400;9.818;2024-03-22T06:47:37;10.60;99.90
1948;DHT22;974;52.400;9.818;2024-03-22T06:50:02;10.70;99.90
1948;DHT22;974;52.400;9.818;2024-03-22T06:52:28;10.70;99.90
1948;DHT22;974;52.400;9.818;2024-03-22T06:54:54;10.70;99.90
1948;DHT22;974;52.400;9.818;2024-03-22T06:57:19;10.70;99.90
1948;DHT22;974;52.400;9.818;2024-03-22T06:59:45;10.70;99.90
1948;DHT22;974;52.400;9.818;2024-03-22T07:02:10;10.80;99.90
1948;DHT22;974;52.400;9.818;2024-03-22T07:04:36;10.80;99.90
1948;DHT22;974;52.400;9.818;2024-03-22T07:07:01;10.80;99.90
1948;DHT22;974;52.400;9.818;2024-03-22T07:09:27;10.90;99.90
1948;DHT22;974;52.400;9.818;2024-03-22T07:11:55;10.90;99.90
1948;DHT22;974;52.400;9.818;2024-03-22T07:14:20;10.90;99.90
1948;DHT22;974;52.400;9.818;2024-03-22T07:16:46;11.00;99.90
1948;DHT22;974;52.400;9.818;2024-03-22T07:19:11;11.00;99.90
1948;DHT22;974;52.400;9.818;2024-03-22T07:21:37;11.10;99.90
1948;DHT22;974;52.400;9.818;2024-03-22T07:24:04;11.20;99.90
1948;DHT22;974;52.400;9.818;2024-03-22T07:26:29;11.10;99.90
1948;DHT22;974;52.400;9.818;2024-03-22T07:28:55;11.10;99.90
1948;DHT22;974;52.400;9.818;2024-03-22T07:31:20;11.20;99.90
1948;DHT22;974;52.400;9.818;2024-03-22T07:33:46;11.30;99.90
1948;DHT22;974;52.400;9.818;2024-03-22T07:36:11;11.30;99.90
1948;DHT22;974;52.400;9.818;2024-03-22T07:38:37;11.30;99.90
1948;DHT22;974;52.400;9.818;2024-03-22T07:41:03;11.30;99.90
1948;DHT22;974;52.400;9.818;2024-03-22T07:43:30;11.40;99.90
1948;DHT22;974;52.400;9.818;2024-03-22T07:45:55;11.40;99.90
1948;DHT22;974;52.400;9.818;2024-03-22T07:48:20;11.40;99.90
1948;DHT22;974;52.400;9.818;2024-03-22T07:50:59;11.40;99.90
1948;DHT22;974;52.400;9.818;2024-03-22T07:53:25;11.40;99.90
1948;DHT22;974;52.400;9.818;2024-03-22T07:55:50;11.50;99.90
1948;DHT22;974;52.400;9.818;2024-03-22T07:58:16;11.50;99.90
1948;DHT22;974;52.400;9.818;2024-03-22T08:00:41;11.60;99.90
1948;DHT22;974;52.400;9.818;2024-03-22T08:03:07;11.60;99.90
1948;DHT22;974;52.400;9.818;2024-03-22T08:05:33;11.60;99.90
1948;DHT22;974;52.400;9.818;2024-03-22T08:07:58;11.70;99.90
1948;DHT22;974;52.400;9.818;2024-03-22T08:10:24;11.70;99.90
1948;DHT22;974;52.400;9.818;2024-03-22T08:12:49;11.70;99.90
1948;DHT22;974;52.400;9.818;2024-03-22T08:15:14;11.80;99.90
1948;DHT22;974;52.400;9.818;2024-03-22T08:17:40;11.90;99.90
1948;DHT22;974;52.400;9.818;2024-03-22T08:20:07;11.90;99.90
1948;DHT22;974;52.400;9.818;2024-03-22T08:22:36;12.00;99.90
1948;DHT22;974;52.400;9.818;2024-03-22T08:25:19;12.10;99.90
1948;DHT22;974;52.400;9.818;2024-03-22T08:27:49;12.10;99.90
1948;DHT22;974;52.400;9.818;2024-03-22T08:30:14;12.20;99.90
1948;DHT22;974;52.400;9.818;2024-03-22T08:32:40;12.20;99.90
1948;DHT22;974;52.400;9.818;2024-03-22T08:35:06;12.20;99.90
1948;DHT22;974;52.400;9.818;2024-03-22T08:37:33;12.20;99.90
1948;DHT22;974;52.400;9.818;2024-03-22T08:39:58;12.20;99.90
1948;DHT22;974;52.400;9.818;2024-03-22T08:42:24;12.30;99.90
1948;DHT22;974;52.400;9.818;2024-03-22T08:44:49;12.30;99.90
1948;DHT22;974;52.400;9.818;2024-03-22T08:47:15;12.30;99.90
1948;DHT22;974;52.400;9.818;2024-03-22T08:49:40;12.30;99.90
1948;DHT22;974;52.400;9.818;2024-03-22T08:52:08;12.30;99.90
1948;DHT22;974;52.400;9.818;2024-03-22T08:54:34;12.20;99.90
1948;DHT22;974;52.400;9.818;2024-03-22T08:56:59;12.20;99.90
1948;DHT22;974;52.400;9.818;2024-03-22T08:59:25;12.20;99.90
1948;DHT22;974;52.400;9.818;2024-03-22T09:01:50;12.20;99.90
1948;DHT22;974;52.400;9.818;2024-03-22T09:04:17;12.20;99.90
1948;DHT22;974;52.400;9.818;2024-03-22T09:06:42;12.20;99.90
1948;DHT22;974;52.400;9.818;2024-03-22T09:09:07;12.20;99.90
1948;DHT22;974;52.400;9.818;2024-03-22T09:11:46;12.20;99.90
1948;DHT22;974;52.400;9.818;2024-03-22T09:14:11;12.20;99.90
1948;DHT22;974;52.400;9.818;2024-03-22T09:16:37;12.20;99.90
1948;DHT22;974;52.400;9.818;2024-03-22T09:19:02;12.20;99.90
1948;DHT22;974;52.400;9.818;2024-03-22T09:21:28;12.20;99.90
1948;DHT22;974;52.400;9.818;2024-03-22T09:23:53;12.20;99.90
1948;DHT22;974;52.400;9.818;2024-03-22T09:26:19;12.20;99.90
1948;DHT22;974;52.400;9.818;2024-03-22T09:28:48;12.20;99.90
1948;DHT22;974;52.400;9.818;2024-03-22T09:31:15;12.30;99.90
1948;DHT22;974;52.400;9.818;2024-03-22T09:33:41;12.30;99.90
1948;DHT22;974;52.400;9.818;2024-03-22T09:36:07;12.30;99.90
1948;DHT22;974;52.400;9.818;2024-03-22T09:38:33;12.30;99.90
1948;DHT22;974;52.400;9.818;2024-03-22T09:40:58;12.40;99.90
1948;DHT22;974;52.400;9.818;2024-03-22T09:43:30;12.40;99.90
1948;DHT22;974;52.400;9.818;2024-03-22T09:45:56;12.30;99.90
1948;DHT22;974;52.400;9.818;2024-03-22T09:48:22;12.40;99.90
1948;DHT22;974;52.400;9.818;2024-03-22T09:50:49;12.40;99.90
1948;DHT22;974;52.400;9.818;2024-03-22T09:53:21;12.40;99.90
1948;DHT22;974;52.400;9.818;2024-03-22T09:55:48;12.50;99.90
1948;DHT22;974;52.400;9.818;2024-03-22T09:58:17;12.50;99.90
1948;DHT22;974;52.400;9.818;2024-03-22T10:00:42;12.60;99.90
1948;DHT22;974;52.400;9.818;2024-03-22T10:03:11;12.60;99.90
1948;DHT22;974;52.400;9.818;2024-03-22T10:05:37;12.60;99.90
1948;DHT22;974;52.400;9.818;2024-03-22T10:08:03;12.60;99.90
1948;DHT22;974;52.400;9.818;2024-03-22T10:10:31;12.70;99.90
1948;DHT22;974;52.400;9.818;2024-03-22T10:12:56;12.70;99.90
1948;DHT22;974;52.400;9.818;2024-03-22T10:15:23;12.70;99.90
1948;DHT22;974;52.400;9.818;2024-03-22T10:17:49;12.80;99.90
1948;DHT22;974;52.400;9.818;2024-03-22T10:20:14;12.80;99.90
1948;DHT22;974;52.400;9.818;2024-03-22T10:22:48;12.80;99.90
1948;DHT22;974;52.400;9.818;2024-03-22T10:25:14;12.90;99.90
1948;DHT22;974;52.400;9.818;2024-03-22T10:27:40;12.90;99.90
1948;DHT22;974;52.400;9.818;2024-03-22T10:30:09;13.00;99.90
1948;DHT22;974;52.400;9.818;2024-03-22T10:32:38;13.00;99.90
1948;DHT22;974;52.400;9.818;2024-03-22T10:35:04;13.10;99.90
1948;DHT22;974;52.400;9.818;2024-03-22T10:37:32;13.00;99.90
1948;DHT22;974;52.400;9.818;2024-03-22T10:39:59;12.90;99.90
1948;DHT22;974;52.400;9.818;2024-03-22T10:42:26;12.90;99.90
1948;DHT22;974;52.400;9.818;2024-03-22T10:44:52;12.90;99.90
1948;DHT22;974;52.400;9.818;2024-03-22T10:47:18;12.80;99.90
1948;DHT22;974;52.400;9.818;2024-03-22T10:49:47;12.90;99.90
1948;DHT22;974;52.400;9.818;2024-03-22T10:52:13;12.90;99.90
1948;DHT22;974;52.400;9.818;2024-03-22T10:54:40;12.90;99.90
1948;DHT22;974;52.400;9.818;2024-03-22T10:57:13;12.90;99.90
1948;DHT22;974;52.400;9.818;2024-03-22T10:59:41;12.90;99.90
1948;DHT22;974;52.400;9.818;2024-03-22T11:02:06;13.00;99.90
1948;DHT22;974;52.400;9.818;2024-03-22T11:04:35;13.10;99.90
1948;DHT22;974;52.400;9.818;2024-03-22T11:07:01;13.20;99.90
1948;DHT22;974;52.400;9.818;2024-03-22T11:09:28;13.20;99.90
1948;DHT22;974;52.400;9.818;2024-03-22T11:11:56;13.20;99.90
1948;DHT22;974;52.400;9.818;2024-03-22T11:14:25;13.20;99.90
1948;DHT22;974;52.400;9.818;2024-03-22T11:16:51;13.30;99.90
1948;DHT22;974;52.400;9.818;2024-03-22T11:19:17;13.30;99.90
1948;DHT22;974;52.400;9.818;2024-03-22T11:21:42;13.30;99.90
1948;DHT22;974;52.400;9.818;2024-03-22T11:24:08;13.30;99.90
1948;DHT22;974;52.400;9.818;2024-03-22T11:26:33;13.30;99.90
1948;DHT22;974;52.400;9.818;2024-03-22T11:28:59;13.40;99.90
1948;DHT22;974;52.400;9.818;2024-03-22T11:31:26;13.40;99.90
1948;DHT22;974;52.400;9.818;2024-03-22T11:33:55;13.30;99.90
1948;DHT22;974;52.400;9.818;2024-03-22T11:36:21;13.30;99.90
1948;DHT22;974;52.400;9.818;2024-03-22T11:38:47;13.30;99.90
1948;DHT22;974;52.400;9.818;2024-03-22T11:41:29;13.20;99.90
1948;DHT22;974;52.400;9.818;2024-03-22T11:43:55;13.20;99.90
1948;DHT22;974;52.400;9.818;2024-03-22T11:46:22;13.20;99.90
1948;DHT22;974;52.400;9.818;2024-03-22T11:48:54;13.10;99.90
1948;DHT22;974;52.400;9.818;2024-03-22T11:51:20;13.10;99.90
1948;DHT22;974;52.400;9.818;2024-03-22T11:53:53;13.10;99.90
1948;DHT22;974;52.400;9.818;2024-03-22T11:56:21;13.10;99.90
1948;DHT22;974;52.400;9.818;2024-03-22T11:58:47;13.00;99.90
1948;DHT22;974;52.400;9.818;2024-03-22T12:01:17;13.10;99.90
1948;DHT22;974;52.400;9.818;2024-03-22T12:03:48;13.10;99.90
1948;DHT22;974;52.400;9.818;2024-03-22T12:06:15;13.00;99.90
1948;DHT22;974;52.400;9.818;2024-03-22T12:08:40;13.00;99.90
1948;DHT22;974;52.400;9.818;2024-03-22T12:11:07;13.00;99.90
1948;DHT22;974;52.400;9.818;2024-03-22T12:13:33;12.90;99.90
1948;DHT22;974;52.400;9.818;2024-03-22T12:15:59;12.90;99.90
1948;DHT22;974;52.400;9.818;2024-03-22T12:18:24;12.90;99.90
1948;DHT22;974;52.400;9.818;2024-03-22T12:20:50;12.90;99.90
1948;DHT22;974;52.400;9.818;2024-03-22T12:23:15;12.90;99.90
1948;DHT22;974;52.400;9.818;2024-03-22T12:25:41;12.90;99.90
1948;DHT22;974;52.400;9.818;2024-03-22T12:28:06;12.90;99.90
1948;DHT22;974;52.400;9.818;2024-03-22T12:30:31;12.90;99.90
1948;DHT22;974;52.400;9.818;2024-03-22T12:32:58;12.80;99.90
1948;DHT22;974;52.400;9.818;2024-03-22T12:35:24;12.80;99.90
1948;DHT22;974;52.400;9.818;2024-03-22T12:37:51;12.80;99.90
1948;DHT22;974;52.400;9.818;2024-03-22T12:40:16;12.80;99.90
1948;DHT22;974;52.400;9.818;2024-03-22T12:42:42;12.80;99.90
1948;DHT22;974;52.400;9.818;2024-03-22T12:45:08;12.80;99.90
1948;DHT22;974;52.400;9.818;2024-03-22T12:47:33;12.70;99.90
1948;DHT22;974;52.400;9.818;2024-03-22T12:49:59;12.70;99.90
1948;DHT22;974;52.400;9.818;2024-03-22T12:52:24;12.70;99.90
1948;DHT22;974;52.400;9.818;2024-03-22T12:54:50;12.70;99.90
1948;DHT22;974;52.400;9.818;2024-03-22T12:57:15;12.70;99.90
1948;DHT22;974;52.400;9.818;2024-03-22T12:59:40;12.70;99.90
1948;DHT22;974;52.400;9.818;2024-03-22T13:02:07;12.60;99.90
1948;DHT22;974;52.400;9.818;2024-03-22T13:04:33;12.60;99.90
1948;DHT22;974;52.400;9.818;2024-03-22T13:06:58;12.60;99.90
1948;DHT22;974;52.400;9.818;2024-03-22T13:09:24;12.60;99.90
1948;DHT22;974;52.400;9.818;2024-03-22T13:11:49;12.40;99.90
1948;DHT22;974;52.400;9.818;2024-03-22T13:14:15;12.40;99.90
1948;DHT22;974;52.400;9.818;2024-03-22T13:16:41;12.40;99.90
1948;DHT22;974;52.400;9.818;2024-03-22T13:19:06;12.30;99.90
1948;DHT22;974;52.400;9.818;2024-03-22T13:21:37;12.30;99.90
1948;DHT22;974;52.400;9.818;2024-03-22T13:24:03;12.20;99.90
1948;DHT22;974;52.400;9.818;2024-03-22T13:26:29;12.20;99.90
1948;DHT22;974;52.400;9.818;2024-03-22T13:28:54;12.10;99.90
1948;DHT22;974;52.400;9.818;2024-03-22T13:31:19;12.20;99.90
1948;DHT22;974;52.400;9.818;2024-03-22T13:33:45;12.20;99.90
1948;DHT22;974;52.400;9.818;2024-03-22T13:36:10;12.10;99.90
1948;DHT22;974;52.400;9.818;2024-03-22T13:38:36;12.10;99.90
1948;DHT22;974;52.400;9.818;2024-03-22T13:41:02;12.10;99.90
1948;DHT22;974;52.400;9.818;2024-03-22T13:43:29;12.00;99.90
1948;DHT22;974;52.400;9.818;2024-03-22T13:45:55;11.90;99.90
1948;DHT22;974;52.400;9.818;2024-03-22T13:48:22;11.90;99.90
1948;DHT22;974;52.400;9.818;2024-03-22T13:53:16;11.70;99.90
1948;DHT22;974;52.400;9.818;2024-03-22T13:55:43;11.70;99.90
1948;DHT22;974;52.400;9.818;2024-03-22T13:58:08;11.70;99.90
1948;DHT22;974;52.400;9.818;2024-03-22T14:00:34;11.70;99.90
1948;DHT22;974;52.400;9.818;2024-03-22T14:03:01;11.70;99.90
1948;DHT22;974;52.400;9.818;2024-03-22T14:05:26;11.70;99.90
1948;DHT22;974;52.400;9.818;2024-03-22T14:07:52;11.70;99.90
1948;DHT22;974;52.400;9.818;2024-03-22T14:10:17;11.70;99.90
1948;DHT22;974;52.400;9.818;2024-03-22T14:12:45;11.70;99.90
1948;DHT22;974;52.400;9.818;2024-03-22T14:15:11;11.70;99.90
1948;DHT22;974;52.400;9.818;2024-03-22T14:17:36;11.70;99.90
1948;DHT22;974;52.400;9.818;2024-03-22T14:20:02;11.60;99.90
1948;DHT22;974;52.400;9.818;2024-03-22T14:22:31;11.60;99.90
1948;DHT22;974;52.400;9.818;2024-03-22T14:24:56;11.50;99.90
1948;DHT22;974;52.400;9.818;2024-03-22T14:27:22;11.50;99.90
1948;DHT22;974;52.400;9.818;2024-03-22T14:29:47;11.50;99.90
1948;DHT22;974;52.400;9.818;2024-03-22T14:32:13;11.40;99.90
1948;DHT22;974;52.400;9.818;2024-03-22T14:34:38;11.30;99.90
1948;DHT22;974;52.400;9.818;2024-03-22T14:37:04;11.20;99.90
1948;DHT22;974;52.400;9.818;2024-03-22T14:39:30;11.20;99.90
1948;DHT22;974;52.400;9.818;2024-03-22T14:41:57;11.10;99.90
1948;DHT22;974;52.400;9.818;2024-03-22T14:44:22;11.10;99.90
1948;DHT22;974;52.400;9.818;2024-03-22T14:46:48;11.00;99.90
1948;DHT22;974;52.400;9.818;2024-03-22T14:49:13;11.00;99.90
1948;DHT22;974;52.400;9.818;2024-03-22T14:51:39;11.00;99.90
1948;DHT22;974;52.400;9.818;2024-03-22T14:54:04;11.00;99.90
1948;DHT22;974;52.400;9.818;2024-03-22T14:56:30;10.80;99.90
1948;DHT22;974;52.400;9.818;2024-03-22T14:58:55;10.80;99.90
1948;DHT22;974;52.400;9.818;2024-03-22T15:01:22;10.70;99.90
1948;DHT22;974;52.400;9.818;2024-03-22T15:03:48;10.60;99.90
1948;DHT22;974;52.400;9.818;2024-03-22T15:06:15;10.60;99.90
1948;DHT22;974;52.400;9.818;2024-03-22T15:08:40;10.60;99.90
1948;DHT22;974;52.400;9.818;2024-03-22T15:11:06;10.70;99.90
1948;DHT22;974;52.400;9.818;2024-03-22T15:13:31;10.60;99.90
1948;DHT22;974;52.400;9.818;2024-03-22T15:15:58;10.50;99.90
1948;DHT22;974;52.400;9.818;2024-03-22T15:18:25;10.50;99.90
1948;DHT22;974;52.400;9.818;2024-03-22T15:20:52;10.50;99.90
1948;DHT22;974;52.400;9.818;2024-03-22T15:23:18;10.50;99.90
1948;DHT22;974;52.400;9.818;2024-03-22T15:25:45;10.40;99.90
1948;DHT22;974;52.400;9.818;2024-03-22T15:28:11;10.50;99.90
1948;DHT22;974;52.400;9.818;2024-03-22T15:30:37;10.40;99.90
1948;DHT22;974;52.400;9.818;2024-03-22T15:33:04;10.40;99.90
1948;DHT22;974;52.400;9.818;2024-03-22T15:35:30;10.40;99.90
1948;DHT22;974;52.400;9.818;2024-03-22T15:37:56;10.40;99.90
1948;DHT22;974;52.400;9.818;2024-03-22T15:40:22;10.40;99.90
1948;DHT22;974;52.400;9.818;2024-03-22T15:42:47;10.30;99.90
1948;DHT22;974;52.400;9.818;2024-03-22T15:45:13;10.40;99.90
1948;DHT22;974;52.400;9.818;2024-03-22T15:47:38;10.40;99.90
1948;DHT22;974;52.400;9.818;2024-03-22T15:50:05;10.40;99.90
1948;DHT22;974;52.400;9.818;2024-03-22T15:52:31;10.40;99.90
1948;DHT22;974;52.400;9.818;2024-03-22T15:54:56;10.40;99.90
1948;DHT22;974;52.400;9.818;2024-03-22T15:57:23;10.40;99.90
1948;DHT22;974;52.400;9.818;2024-03-22T15:59:48;10.30;99.90
1948;DHT22;974;52.400;9.818;2024-03-22T16:02:15;10.40;99.90
1948;DHT22;974;52.400;9.818;2024-03-22T16:04:40;10.30;99.90
1948;DHT22;974;52.400;9.818;2024-03-22T16:07:06;10.40;99.90
1948;DHT22;974;52.400;9.818;2024-03-22T16:09:31;10.30;99.90
1948;DHT22;974;52.400;9.818;2024-03-22T16:11:57;10.20;99.90
1948;DHT22;974;52.400;9.818;2024-03-22T16:14:22;10.30;99.90
1948;DHT22;974;52.400;9.818;2024-03-22T16:16:48;10.30;99.90
1948;DHT22;974;52.400;9.818;2024-03-22T16:19:13;10.30;99.90